sensor_id;sensor_type;location;lat;lon;timestamp;P1;durP1;ratioP1;P2;durP2;ratioP2
5416;SDS011;2731;50.754;12.990;2022-10-17T00:00:42;6.38;;;2.88;;
5416;SDS011;2731;50.754;12.990;2022-10-17T00:03:08;2.38;;;2.17;;
5416;SDS011;2731;50.754;12.990;2022-10-17T00:05:38;2.83;;;2.17;;
5416;SDS011;2731;50.754;12.990;2022-10-17T00:08:05;2.20;;;1.98;;
5416;SDS011;2731;50.754;12.990;2022-10-17T00:10:33;2.10;;;1.70;;
5416;SDS011;2731;50.754;12.990;2022-10-17T00:13:00;2.00;;;1.80;;
5416;SDS011;2731;50.754;12.990;2022-10-17T00:15:25;3.28;;;2.45;;
5416;SDS011;2731;50.754;12.990;2022-10-17T00:17:53;2.40;;;1.88;;
5416;SDS011;2731;50.754;12.990;2022-10-17T00:20:19;4.75;;;1.90;;
5416;SDS011;2731;50.754;12.990;2022-10-17T00:22:48;2.63;;;1.92;;
5416;SDS011;2731;50.754;12.990;2022-10-17T00:25:16;2.95;;;1.70;;
5416;SDS011;2731;50.754;12.990;2022-10-17T00:27:44;2.45;;;2.08;;
5416;SDS011;2731;50.754;12.990;2022-10-17T00:30:11;3.65;;;1.95;;
5416;SDS011;2731;50.754;12.990;2022-10-17T00:32:39;2.00;;;1.80;;
5416;SDS011;2731;50.754;12.990;2022-10-17T00:35:05;3.47;;;1.80;;
5416;SDS011;2731;50.754;12.990;2022-10-17T00:37:32;2.30;;;1.70;;
5416;SDS011;2731;50.754;12.990;2022-10-17T00:39:58;3.35;;;1.65;;
5416;SDS011;2731;50.754;12.990;2022-10-17T00:42:26;2.35;;;1.63;;
5416;SDS011;2731;50.754;12.990;2022-10-17T00:47:38;2.00;;;1.67;;
5416;SDS011;2731;50.754;12.990;2022-10-17T00:50:06;1.92;;;1.60;;
5416;SDS011;2731;50.754;12.990;2022-10-17T00:52:36;1.98;;;1.73;;
5416;SDS011;2731;50.754;12.990;2022-10-17T00:55:07;3.17;;;1.77;;
5416;SDS011;2731;50.754;12.990;2022-10-17T00:57:36;2.28;;;1.63;;
5416;SDS011;2731;50.754;12.990;2022-10-17T01:00:06;2.05;;;1.42;;
5416;SDS011;2731;50.754;12.990;2022-10-17T01:02:33;3.15;;;1.80;;
5416;SDS011;2731;50.754;12.990;2022-10-17T01:04:59;1.73;;;1.63;;
5416;SDS011;2731;50.754;12.990;2022-10-17T01:07:27;3.17;;;1.55;;
5416;SDS011;2731;50.754;12.990;2022-10-17T01:09:53;1.30;;;1.20;;
5416;SDS011;2731;50.754;12.990;2022-10-17T01:13:07;2.30;;;1.50;;
5416;SDS011;2731;50.754;12.990;2022-10-17T01:17:58;2.73;;;1.60;;
5416;SDS011;2731;50.754;12.990;2022-10-17T01:20:59;3.08;;;1.60;;
5416;SDS011;2731;50.754;12.990;2022-10-17T01:23:35;1.55;;;1.45;;
5416;SDS011;2731;50.754;12.990;2022-10-17T01:32:38;1.90;;;1.58;;
5416;SDS011;2731;50.754;12.990;2022-10-17T01:35:40;2.75;;;1.60;;
5416;SDS011;2731;50.754;12.990;2022-10-17T01:38:08;1.88;;;1.38;;
5416;SDS011;2731;50.754;12.990;2022-10-17T01:43:40;4.38;;;1.80;;
5416;SDS011;2731;50.754;12.990;2022-10-17T01:46:21;1.98;;;1.70;;
5416;SDS011;2731;50.754;12.990;2022-10-17T01:48:54;2.78;;;1.23;;
5416;SDS011;2731;50.754;12.990;2022-10-17T01:51:22;3.08;;;1.63;;
5416;SDS011;2731;50.754;12.990;2022-10-17T01:54:02;2.28;;;1.65;;
5416;SDS011;2731;50.754;12.990;2022-10-17T01:56:36;4.03;;;1.70;;
5416;SDS011;2731;50.754;12.990;2022-10-17T01:59:05;3.00;;;1.50;;
5416;SDS011;2731;50.754;12.990;2022-10-17T02:01:40;3.00;;;1.50;;
5416;SDS011;2731;50.754;12.990;2022-10-17T02:04:08;5.40;;;1.75;;
5416;SDS011;2731;50.754;12.990;2022-10-17T02:06:35;2.22;;;1.70;;
5416;SDS011;2731;50.754;12.990;2022-10-17T02:09:13;2.10;;;1.50;;
5416;SDS011;2731;50.754;12.990;2022-10-17T02:11:41;3.85;;;1.60;;
5416;SDS011;2731;50.754;12.990;2022-10-17T02:14:46;2.40;;;1.70;;
5416;SDS011;2731;50.754;12.990;2022-10-17T02:17:26;2.20;;;1.50;;
5416;SDS011;2731;50.754;12.990;2022-10-17T02:20:25;2.60;;;1.73;;
5416;SDS011;2731;50.754;12.990;2022-10-17T02:23:12;4.57;;;2.17;;
5416;SDS011;2731;50.754;12.990;2022-10-17T02:31:48;3.30;;;1.77;;
5416;SDS011;2731;50.754;12.990;2022-10-17T02:34:20;3.13;;;1.80;;
5416;SDS011;2731;50.754;12.990;2022-10-17T02:36:53;5.95;;;1.80;;
5416;SDS011;2731;50.754;12.990;2022-10-17T02:39:26;4.90;;;2.30;;
5416;SDS011;2731;50.754;12.990;2022-10-17T02:41:54;1.98;;;1.45;;
5416;SDS011;2731;50.754;12.990;2022-10-17T02:44:23;1.98;;;1.67;;
5416;SDS011;2731;50.754;12.990;2022-10-17T02:46:51;4.70;;;1.95;;
5416;SDS011;2731;50.754;12.990;2022-10-17T02:49:23;3.13;;;1.85;;
5416;SDS011;2731;50.754;12.990;2022-10-17T02:52:00;2.17;;;1.60;;
5416;SDS011;2731;50.754;12.990;2022-10-17T02:57:51;2.78;;;2.10;;
5416;SDS011;2731;50.754;12.990;2022-10-17T03:00:20;2.13;;;1.77;;
5416;SDS011;2731;50.754;12.990;2022-10-17T03:02:48;3.28;;;1.88;;
5416;SDS011;2731;50.754;12.990;2022-10-17T03:05:22;3.83;;;1.75;;
5416;SDS011;2731;50.754;12.990;2022-10-17T03:07:48;1.67;;;1.50;;
5416;SDS011;2731;50.754;12.990;2022-10-17T03:10:17;2.42;;;1.90;;
5416;SDS011;2731;50.754;12.990;2022-10-17T03:12:43;2.20;;;1.65;;
5416;SDS011;2731;50.754;12.990;2022-10-17T03:15:08;1.90;;;1.63;;
5416;SDS011;2731;50.754;12.990;2022-10-17T03:17:36;2.00;;;1.60;;
5416;SDS011;2731;50.754;12.990;2022-10-17T03:20:03;2.33;;;1.42;;
5416;SDS011;2731;50.754;12.990;2022-10-17T03:22:31;1.98;;;1.42;;
5416;SDS011;2731;50.754;12.990;2022-10-17T03:24:58;3.75;;;1.60;;
5416;SDS011;2731;50.754;12.990;2022-10-17T03:27:23;3.53;;;1.60;;
5416;SDS011;2731;50.754;12.990;2022-10-17T03:29:49;1.55;;;1.45;;
5416;SDS011;2731;50.754;12.990;2022-10-17T03:32:19;2.60;;;1.70;;
5416;SDS011;2731;50.754;12.990;2022-10-17T03:34:47;3.03;;;1.50;;
5416;SDS011;2731;50.754;12.990;2022-10-17T03:37:12;1.65;;;1.55;;
5416;SDS011;2731;50.754;12.990;2022-10-17T03:39:40;3.70;;;1.80;;
5416;SDS011;2731;50.754;12.990;2022-10-17T03:42:05;1.98;;;1.50;;
5416;SDS011;2731;50.754;12.990;2022-10-17T03:44:33;2.53;;;1.85;;
5416;SDS011;2731;50.754;12.990;2022-10-17T03:47:00;2.17;;;1.70;;
5416;SDS011;2731;50.754;12.990;2022-10-17T03:49:25;1.83;;;1.55;;
5416;SDS011;2731;50.754;12.990;2022-10-17T03:51:53;2.20;;;1.58;;
5416;SDS011;2731;50.754;12.990;2022-10-17T03:54:20;2.03;;;1.38;;
5416;SDS011;2731;50.754;12.990;2022-10-17T03:56:47;3.17;;;1.70;;
5416;SDS011;2731;50.754;12.990;2022-10-17T03:59:14;1.60;;;1.27;;
5416;SDS011;2731;50.754;12.990;2022-10-17T04:01:41;1.25;;;1.10;;
5416;SDS011;2731;50.754;12.990;2022-10-17T04:04:07;1.20;;;1.05;;
5416;SDS011;2731;50.754;12.990;2022-10-17T04:06:33;2.42;;;1.30;;
5416;SDS011;2731;50.754;12.990;2022-10-17T04:09:00;1.52;;;1.00;;
5416;SDS011;2731;50.754;12.990;2022-10-17T04:11:26;1.98;;;1.10;;
5416;SDS011;2731;50.754;12.990;2022-10-17T04:13:55;2.05;;;1.15;;
5416;SDS011;2731;50.754;12.990;2022-10-17T04:16:23;1.58;;;1.10;;
5416;SDS011;2731;50.754;12.990;2022-10-17T04:18:55;1.08;;;0.77;;
5416;SDS011;2731;50.754;12.990;2022-10-17T04:21:24;1.17;;;0.90;;
5416;SDS011;2731;50.754;12.990;2022-10-17T04:23:56;0.90;;;0.80;;
5416;SDS011;2731;50.754;12.990;2022-10-17T04:26:22;1.50;;;0.47;;
5416;SDS011;2731;50.754;12.990;2022-10-17T04:28:50;1.08;;;0.80;;
5416;SDS011;2731;50.754;12.990;2022-10-17T04:31:17;0.85;;;0.70;;
5416;SDS011;2731;50.754;12.990;2022-10-17T04:33:42;0.77;;;0.60;;
5416;SDS011;2731;50.754;12.990;2022-10-17T04:36:13;1.33;;;0.60;;
5416;SDS011;2731;50.754;12.990;2022-10-17T04:38:41;0.88;;;0.70;;
5416;SDS011;2731;50.754;12.990;2022-10-17T04:41:12;1.08;;;0.75;;
5416;SDS011;2731;50.754;12.990;2022-10-17T04:43:39;1.67;;;0.85;;
5416;SDS011;2731;50.754;12.990;2022-10-17T04:46:07;1.58;;;0.93;;
5416;SDS011;2731;50.754;12.990;2022-10-17T04:48:36;0.73;;;0.73;;
5416;SDS011;2731;50.754;12.990;2022-10-17T04:51:05;0.98;;;0.80;;
5416;SDS011;2731;50.754;12.990;2022-10-17T04:53:35;1.30;;;0.98;;
5416;SDS011;2731;50.754;12.990;2022-10-17T04:56:06;2.25;;;0.70;;
5416;SDS011;2731;50.754;12.990;2022-10-17T04:58:39;1.48;;;0.70;;
5416;SDS011;2731;50.754;12.990;2022-10-17T05:01:06;1.40;;;1.10;;
5416;SDS011;2731;50.754;12.990;2022-10-17T05:03:33;1.52;;;0.80;;
5416;SDS011;2731;50.754;12.990;2022-10-17T05:06:06;1.52;;;0.85;;
5416;SDS011;2731;50.754;12.990;2022-10-17T05:08:33;0.60;;;0.60;;
5416;SDS011;2731;50.754;12.990;2022-10-17T05:11:01;2.75;;;0.70;;
5416;SDS011;2731;50.754;12.990;2022-10-17T05:13:32;2.45;;;0.80;;
5416;SDS011;2731;50.754;12.990;2022-10-17T05:16:00;1.67;;;1.35;;
5416;SDS011;2731;50.754;12.990;2022-10-17T05:18:27;2.78;;;1.00;;
5416;SDS011;2731;50.754;12.990;2022-10-17T05:20:57;1.17;;;0.88;;
5416;SDS011;2731;50.754;12.990;2022-10-17T05:23:22;1.17;;;0.85;;
5416;SDS011;2731;50.754;12.990;2022-10-17T05:25:58;1.85;;;0.93;;
5416;SDS011;2731;50.754;12.990;2022-10-17T05:28:24;1.45;;;0.93;;
5416;SDS011;2731;50.754;12.990;2022-10-17T05:30:49;1.30;;;0.90;;
5416;SDS011;2731;50.754;12.990;2022-10-17T05:33:15;1.23;;;1.05;;
5416;SDS011;2731;50.754;12.990;2022-10-17T05:35:42;1.38;;;0.93;;
5416;SDS011;2731;50.754;12.990;2022-10-17T05:38:09;1.05;;;0.82;;
5416;SDS011;2731;50.754;12.990;2022-10-17T05:40:36;1.20;;;1.10;;
5416;SDS011;2731;50.754;12.990;2022-10-17T05:43:04;1.40;;;0.93;;
5416;SDS011;2731;50.754;12.990;2022-10-17T05:45:31;1.85;;;0.95;;
5416;SDS011;2731;50.754;12.990;2022-10-17T05:48:00;2.92;;;0.82;;
5416;SDS011;2731;50.754;12.990;2022-10-17T05:50:26;1.05;;;0.90;;
5416;SDS011;2731;50.754;12.990;2022-10-17T05:52:53;2.28;;;1.10;;
5416;SDS011;2731;50.754;12.990;2022-10-17T05:55:19;1.38;;;1.15;;
5416;SDS011;2731;50.754;12.990;2022-10-17T05:57:44;1.90;;;1.00;;
5416;SDS011;2731;50.754;12.990;2022-10-17T06:00:13;1.60;;;0.95;;
5416;SDS011;2731;50.754;12.990;2022-10-17T06:02:45;1.63;;;1.17;;
5416;SDS011;2731;50.754;12.990;2022-10-17T06:05:11;1.50;;;1.08;;
5416;SDS011;2731;50.754;12.990;2022-10-17T06:07:38;1.83;;;1.40;;
5416;SDS011;2731;50.754;12.990;2022-10-17T06:10:04;1.92;;;1.15;;
5416;SDS011;2731;50.754;12.990;2022-10-17T06:12:31;1.92;;;1.25;;
5416;SDS011;2731;50.754;12.990;2022-10-17T06:14:59;1.42;;;1.15;;
5416;SDS011;2731;50.754;12.990;2022-10-17T06:17:25;1.80;;;1.10;;
5416;SDS011;2731;50.754;12.990;2022-10-17T06:19:55;1.77;;;1.00;;
5416;SDS011;2731;50.754;12.990;2022-10-17T06:22:22;1.48;;;1.13;;
5416;SDS011;2731;50.754;12.990;2022-10-17T06:24:49;1.40;;;1.00;;
5416;SDS011;2731;50.754;12.990;2022-10-17T06:27:19;1.42;;;0.90;;
5416;SDS011;2731;50.754;12.990;2022-10-17T06:29:45;1.23;;;0.98;;
5416;SDS011;2731;50.754;12.990;2022-10-17T06:32:12;2.70;;;1.05;;
5416;SDS011;2731;50.754;12.990;2022-10-17T06:34:38;2.50;;;1.25;;
5416;SDS011;2731;50.754;12.990;2022-10-17T06:37:03;2.10;;;1.25;;
5416;SDS011;2731;50.754;12.990;2022-10-17T06:39:30;1.83;;;1.15;;
5416;SDS011;2731;50.754;12.990;2022-10-17T06:41:59;1.92;;;1.30;;
5416;SDS011;2731;50.754;12.990;2022-10-17T06:44:29;1.98;;;1.10;;
5416;SDS011;2731;50.754;12.990;2022-10-17T06:47:00;1.50;;;0.90;;
5416;SDS011;2731;50.754;12.990;2022-10-17T06:49:29;1.15;;;0.90;;
5416;SDS011;2731;50.754;12.990;2022-10-17T06:51:55;1.15;;;0.80;;
5416;SDS011;2731;50.754;12.990;2022-10-17T06:54:22;0.90;;;0.60;;
5416;SDS011;2731;50.754;12.990;2022-10-17T06:56:47;0.80;;;0.70;;
5416;SDS011;2731;50.754;12.990;2022-10-17T06:59:17;1.23;;;0.95;;
5416;SDS011;2731;50.754;12.990;2022-10-17T07:01:42;2.22;;;1.00;;
5416;SDS011;2731;50.754;12.990;2022-10-17T07:04:10;1.45;;;0.85;;
5416;SDS011;2731;50.754;12.990;2022-10-17T07:06:35;1.05;;;0.80;;
5416;SDS011;2731;50.754;12.990;2022-10-17T07:09:02;2.60;;;0.98;;
5416;SDS011;2731;50.754;12.990;2022-10-17T07:11:31;2.45;;;0.82;;
5416;SDS011;2731;50.754;12.990;2022-10-17T07:14:00;1.60;;;0.70;;
5416;SDS011;2731;50.754;12.990;2022-10-17T07:16:26;1.27;;;0.80;;
5416;SDS011;2731;50.754;12.990;2022-10-17T07:18:52;2.53;;;0.70;;
5416;SDS011;2731;50.754;12.990;2022-10-17T07:21:19;0.98;;;0.90;;
5416;SDS011;2731;50.754;12.990;2022-10-17T07:23:47;1.48;;;0.93;;
5416;SDS011;2731;50.754;12.990;2022-10-17T07:26:15;1.13;;;0.60;;
5416;SDS011;2731;50.754;12.990;2022-10-17T07:28:45;1.25;;;0.82;;
5416;SDS011;2731;50.754;12.990;2022-10-17T07:31:15;1.02;;;0.80;;
5416;SDS011;2731;50.754;12.990;2022-10-17T07:33:42;2.60;;;0.90;;
5416;SDS011;2731;50.754;12.990;2022-10-17T07:36:10;1.77;;;0.90;;
5416;SDS011;2731;50.754;12.990;2022-10-17T07:38:37;1.38;;;0.90;;
5416;SDS011;2731;50.754;12.990;2022-10-17T07:41:04;0.75;;;0.57;;
5416;SDS011;2731;50.754;12.990;2022-10-17T07:43:31;0.80;;;0.70;;
5416;SDS011;2731;50.754;12.990;2022-10-17T07:45:57;0.60;;;0.60;;
5416;SDS011;2731;50.754;12.990;2022-10-17T07:48:27;1.55;;;1.05;;
5416;SDS011;2731;50.754;12.990;2022-10-17T07:50:53;1.40;;;0.80;;
5416;SDS011;2731;50.754;12.990;2022-10-17T07:53:20;0.82;;;0.70;;
5416;SDS011;2731;50.754;12.990;2022-10-17T07:55:45;2.45;;;1.00;;
5416;SDS011;2731;50.754;12.990;2022-10-17T07:58:13;1.08;;;0.90;;
5416;SDS011;2731;50.754;12.990;2022-10-17T08:00:40;1.05;;;0.90;;
5416;SDS011;2731;50.754;12.990;2022-10-17T08:03:05;2.13;;;1.15;;
5416;SDS011;2731;50.754;12.990;2022-10-17T08:05:36;2.10;;;0.88;;
5416;SDS011;2731;50.754;12.990;2022-10-17T08:08:01;2.08;;;1.13;;
5416;SDS011;2731;50.754;12.990;2022-10-17T08:10:29;1.45;;;1.10;;
5416;SDS011;2731;50.754;12.990;2022-10-17T08:12:57;1.30;;;1.00;;
5416;SDS011;2731;50.754;12.990;2022-10-17T08:15:24;1.17;;;0.98;;
5416;SDS011;2731;50.754;12.990;2022-10-17T08:17:51;2.83;;;0.95;;
5416;SDS011;2731;50.754;12.990;2022-10-17T08:20:20;3.13;;;1.02;;
5416;SDS011;2731;50.754;12.990;2022-10-17T08:22:52;3.13;;;1.17;;
5416;SDS011;2731;50.754;12.990;2022-10-17T08:25:20;1.67;;;1.20;;
5416;SDS011;2731;50.754;12.990;2022-10-17T08:27:47;2.33;;;1.20;;
5416;SDS011;2731;50.754;12.990;2022-10-17T08:30:13;1.80;;;1.35;;
5416;SDS011;2731;50.754;12.990;2022-10-17T08:32:40;2.88;;;1.35;;
5416;SDS011;2731;50.754;12.990;2022-10-17T08:35:07;2.10;;;1.40;;
5416;SDS011;2731;50.754;12.990;2022-10-17T08:37:33;1.58;;;1.08;;
5416;SDS011;2731;50.754;12.990;2022-10-17T08:40:00;5.13;;;1.98;;
5416;SDS011;2731;50.754;12.990;2022-10-17T08:45:31;2.83;;;1.60;;
5416;SDS011;2731;50.754;12.990;2022-10-17T08:48:03;2.35;;;1.30;;
5416;SDS011;2731;50.754;12.990;2022-10-17T08:50:36;1.83;;;1.08;;
5416;SDS011;2731;50.754;12.990;2022-10-17T08:53:14;3.30;;;1.30;;
5416;SDS011;2731;50.754;12.990;2022-10-17T08:55:52;1.80;;;1.23;;
5416;SDS011;2731;50.754;12.990;2022-10-17T08:58:30;1.80;;;1.30;;
5416;SDS011;2731;50.754;12.990;2022-10-17T09:06:28;1.80;;;1.40;;
5416;SDS011;2731;50.754;12.990;2022-10-17T09:20:27;1.48;;;0.90;;
5416;SDS011;2731;50.754;12.990;2022-10-17T09:23:07;1.67;;;1.13;;
5416;SDS011;2731;50.754;12.990;2022-10-17T09:25:43;2.40;;;1.00;;
5416;SDS011;2731;50.754;12.990;2022-10-17T09:31:00;2.15;;;1.33;;
5416;SDS011;2731;50.754;12.990;2022-10-17T09:33:40;1.92;;;1.58;;
5416;SDS011;2731;50.754;12.990;2022-10-17T09:36:18;2.05;;;1.35;;
5416;SDS011;2731;50.754;12.990;2022-10-17T09:38:56;2.75;;;1.13;;
5416;SDS011;2731;50.754;12.990;2022-10-17T09:41:38;1.55;;;1.25;;
5416;SDS011;2731;50.754;12.990;2022-10-17T09:49:29;2.28;;;1.38;;
5416;SDS011;2731;50.754;12.990;2022-10-17T09:54:26;2.53;;;1.48;;
5416;SDS011;2731;50.754;12.990;2022-10-17T09:57:00;1.67;;;1.42;;
5416;SDS011;2731;50.754;12.990;2022-10-17T09:59:34;2.38;;;1.33;;
5416;SDS011;2731;50.754;12.990;2022-10-17T10:07:23;2.00;;;1.52;;
5416;SDS011;2731;50.754;12.990;2022-10-17T10:09:50;3.03;;;1.48;;
5416;SDS011;2731;50.754;12.990;2022-10-17T10:12:24;1.85;;;1.55;;
5416;SDS011;2731;50.754;12.990;2022-10-17T10:14:51;1.75;;;1.08;;
5416;SDS011;2731;50.754;12.990;2022-10-17T10:17:36;1.60;;;1.20;;
5416;SDS011;2731;50.754;12.990;2022-10-17T10:25:32;2.42;;;1.20;;
5416;SDS011;2731;50.754;12.990;2022-10-17T10:27:57;1.42;;;1.02;;
5416;SDS011;2731;50.754;12.990;2022-10-17T10:30:24;1.48;;;1.20;;
5416;SDS011;2731;50.754;12.990;2022-10-17T10:32:52;1.67;;;1.35;;
5416;SDS011;2731;50.754;12.990;2022-10-17T10:37:27;2.17;;;1.60;;
5416;SDS011;2731;50.754;12.990;2022-10-17T10:40:32;1.60;;;1.17;;
5416;SDS011;2731;50.754;12.990;2022-10-17T10:43:04;1.73;;;1.50;;
5416;SDS011;2731;50.754;12.990;2022-10-17T10:45:41;1.92;;;1.20;;
5416;SDS011;2731;50.754;12.990;2022-10-17T10:59:37;1.20;;;1.10;;
5416;SDS011;2731;50.754;12.990;2022-10-17T11:04:56;1.02;;;0.93;;
5416;SDS011;2731;50.754;12.990;2022-10-17T11:07:31;1.55;;;1.05;;
5416;SDS011;2731;50.754;12.990;2022-10-17T11:10:13;1.02;;;0.90;;
5416;SDS011;2731;50.754;12.990;2022-10-17T11:15:20;1.38;;;0.90;;
5416;SDS011;2731;50.754;12.990;2022-10-17T11:25:56;1.58;;;1.00;;
5416;SDS011;2731;50.754;12.990;2022-10-17T11:28:28;1.38;;;0.80;;
5416;SDS011;2731;50.754;12.990;2022-10-17T11:31:00;2.45;;;1.10;;
5416;SDS011;2731;50.754;12.990;2022-10-17T11:36:40;1.13;;;1.02;;
5416;SDS011;2731;50.754;12.990;2022-10-17T11:39:27;1.88;;;1.25;;
5416;SDS011;2731;50.754;12.990;2022-10-17T11:43:16;1.30;;;0.80;;
5416;SDS011;2731;50.754;12.990;2022-10-17T11:45:41;1.27;;;1.02;;
5416;SDS011;2731;50.754;12.990;2022-10-17T11:48:20;1.15;;;0.90;;
5416;SDS011;2731;50.754;12.990;2022-10-17T11:50:48;1.88;;;1.17;;
5416;SDS011;2731;50.754;12.990;2022-10-17T11:53:21;1.15;;;1.05;;
5416;SDS011;2731;50.754;12.990;2022-10-17T11:55:49;3.30;;;1.63;;
5416;SDS011;2731;50.754;12.990;2022-10-17T12:12:25;1.13;;;0.90;;
5416;SDS011;2731;50.754;12.990;2022-10-17T12:15:30;1.15;;;1.00;;
5416;SDS011;2731;50.754;12.990;2022-10-17T12:18:01;1.90;;;1.00;;
5416;SDS011;2731;50.754;12.990;2022-10-17T12:25:49;1.75;;;1.02;;
5416;SDS011;2731;50.754;12.990;2022-10-17T12:38:52;1.75;;;0.80;;
5416;SDS011;2731;50.754;12.990;2022-10-17T12:46:46;1.23;;;0.80;;
5416;SDS011;2731;50.754;12.990;2022-10-17T12:54:41;1.13;;;0.90;;
5416;SDS011;2731;50.754;12.990;2022-10-17T12:57:12;2.17;;;0.80;;
5416;SDS011;2731;50.754;12.990;2022-10-17T12:59:42;1.17;;;0.85;;
5416;SDS011;2731;50.754;12.990;2022-10-17T13:02:08;1.85;;;1.40;;
5416;SDS011;2731;50.754;12.990;2022-10-17T13:04:43;1.10;;;0.90;;
5416;SDS011;2731;50.754;12.990;2022-10-17T13:07:15;1.70;;;0.80;;
5416;SDS011;2731;50.754;12.990;2022-10-17T13:09:45;1.77;;;1.00;;
5416;SDS011;2731;50.754;12.990;2022-10-17T13:12:12;1.10;;;0.90;;
5416;SDS011;2731;50.754;12.990;2022-10-17T13:14:51;1.48;;;1.25;;
5416;SDS011;2731;50.754;12.990;2022-10-17T13:17:29;1.75;;;1.25;;
5416;SDS011;2731;50.754;12.990;2022-10-17T13:19:55;1.63;;;1.00;;
5416;SDS011;2731;50.754;12.990;2022-10-17T13:22:26;2.15;;;0.95;;
5416;SDS011;2731;50.754;12.990;2022-10-17T13:25:05;1.30;;;0.95;;
5416;SDS011;2731;50.754;12.990;2022-10-17T13:27:39;1.55;;;1.20;;
5416;SDS011;2731;50.754;12.990;2022-10-17T13:33:43;1.83;;;1.30;;
5416;SDS011;2731;50.754;12.990;2022-10-17T13:36:11;1.55;;;1.33;;
5416;SDS011;2731;50.754;12.990;2022-10-17T13:38:40;1.63;;;1.10;;
5416;SDS011;2731;50.754;12.990;2022-10-17T13:41:10;1.70;;;1.20;;
5416;SDS011;2731;50.754;12.990;2022-10-17T13:43:39;2.08;;;1.40;;
5416;SDS011;2731;50.754;12.990;2022-10-17T13:46:11;2.17;;;1.60;;
5416;SDS011;2731;50.754;12.990;2022-10-17T13:49:08;3.50;;;1.35;;
5416;SDS011;2731;50.754;12.990;2022-10-17T13:51:51;1.50;;;1.25;;
5416;SDS011;2731;50.754;12.990;2022-10-17T13:54:39;2.00;;;1.60;;
5416;SDS011;2731;50.754;12.990;2022-10-17T13:59:50;2.55;;;2.05;;
5416;SDS011;2731;50.754;12.990;2022-10-17T14:02:47;1.90;;;1.58;;
5416;SDS011;2731;50.754;12.990;2022-10-17T14:05:17;4.25;;;2.08;;
5416;SDS011;2731;50.754;12.990;2022-10-17T14:12:57;3.50;;;2.58;;
5416;SDS011;2731;50.754;12.990;2022-10-17T14:15:30;2.15;;;1.95;;
5416;SDS011;2731;50.754;12.990;2022-10-17T14:18:03;3.85;;;2.92;;
5416;SDS011;2731;50.754;12.990;2022-10-17T14:20:31;3.90;;;2.60;;
5416;SDS011;2731;50.754;12.990;2022-10-17T14:26:06;3.40;;;2.92;;
5416;SDS011;2731;50.754;12.990;2022-10-17T14:28:36;4.47;;;3.22;;
5416;SDS011;2731;50.754;12.990;2022-10-17T14:31:22;4.32;;;3.28;;
5416;SDS011;2731;50.754;12.990;2022-10-17T14:33:50;3.78;;;2.83;;
5416;SDS011;2731;50.754;12.990;2022-10-17T14:36:19;5.25;;;3.65;;
5416;SDS011;2731;50.754;12.990;2022-10-17T14:38:53;4.60;;;3.85;;
5416;SDS011;2731;50.754;12.990;2022-10-17T14:41:36;5.22;;;4.03;;
5416;SDS011;2731;50.754;12.990;2022-10-17T14:44:07;6.35;;;4.43;;
5416;SDS011;2731;50.754;12.990;2022-10-17T14:46:48;5.43;;;4.65;;
5416;SDS011;2731;50.754;12.990;2022-10-17T14:49:18;7.32;;;5.25;;
5416;SDS011;2731;50.754;12.990;2022-10-17T14:54:50;7.78;;;5.47;;
5416;SDS011;2731;50.754;12.990;2022-10-17T14:57:44;8.05;;;6.60;;
5416;SDS011;2731;50.754;12.990;2022-10-17T15:00:18;8.27;;;6.05;;
5416;SDS011;2731;50.754;12.990;2022-10-17T15:02:45;8.02;;;6.00;;
5416;SDS011;2731;50.754;12.990;2022-10-17T15:05:12;10.18;;;6.40;;
5416;SDS011;2731;50.754;12.990;2022-10-17T15:07:40;11.25;;;7.70;;
5416;SDS011;2731;50.754;12.990;2022-10-17T15:10:52;10.75;;;8.38;;
5416;SDS011;2731;50.754;12.990;2022-10-17T15:12:58;11.98;;;8.20;;
5416;SDS011;2731;50.754;12.990;2022-10-17T15:15:26;12.65;;;8.75;;
5416;SDS011;2731;50.754;12.990;2022-10-17T15:17:54;12.98;;;8.95;;
5416;SDS011;2731;50.754;12.990;2022-10-17T15:20:19;10.65;;;8.45;;
5416;SDS011;2731;50.754;12.990;2022-10-17T15:22:53;15.35;;;10.00;;
5416;SDS011;2731;50.754;12.990;2022-10-17T15:25:20;12.90;;;9.90;;
5416;SDS011;2731;50.754;12.990;2022-10-17T15:27:46;14.20;;;10.27;;
5416;SDS011;2731;50.754;12.990;2022-10-17T15:32:46;12.98;;;10.10;;
5416;SDS011;2731;50.754;12.990;2022-10-17T15:35:12;12.70;;;9.77;;
5416;SDS011;2731;50.754;12.990;2022-10-17T15:37:39;13.98;;;10.07;;
5416;SDS011;2731;50.754;12.990;2022-10-17T15:40:08;14.35;;;10.27;;
5416;SDS011;2731;50.754;12.990;2022-10-17T15:42:41;13.32;;;9.95;;
5416;SDS011;2731;50.754;12.990;2022-10-17T15:45:09;13.15;;;9.75;;
5416;SDS011;2731;50.754;12.990;2022-10-17T15:47:36;13.43;;;10.10;;
5416;SDS011;2731;50.754;12.990;2022-10-17T15:50:03;14.98;;;10.57;;
5416;SDS011;2731;50.754;12.990;2022-10-17T15:52:43;14.50;;;10.73;;
5416;SDS011;2731;50.754;12.990;2022-10-17T15:55:11;16.38;;;12.43;;
5416;SDS011;2731;50.754;12.990;2022-10-17T15:57:40;14.60;;;11.73;;
5416;SDS011;2731;50.754;12.990;2022-10-17T16:00:16;15.48;;;11.80;;
5416;SDS011;2731;50.754;12.990;2022-10-17T16:02:45;18.13;;;12.35;;
5416;SDS011;2731;50.754;12.990;2022-10-17T16:05:16;16.73;;;11.88;;
5416;SDS011;2731;50.754;12.990;2022-10-17T16:07:42;15.18;;;11.63;;
5416;SDS011;2731;50.754;12.990;2022-10-17T16:10:11;17.00;;;12.45;;
5416;SDS011;2731;50.754;12.990;2022-10-17T16:12:39;18.25;;;12.98;;
5416;SDS011;2731;50.754;12.990;2022-10-17T16:15:28;16.20;;;11.80;;
5416;SDS011;2731;50.754;12.990;2022-10-17T16:17:55;17.90;;;12.07;;
5416;SDS011;2731;50.754;12.990;2022-10-17T16:20:23;16.02;;;11.85;;
5416;SDS011;2731;50.754;12.990;2022-10-17T16:22:49;15.55;;;11.85;;
5416;SDS011;2731;50.754;12.990;2022-10-17T16:25:22;15.40;;;11.73;;
5416;SDS011;2731;50.754;12.990;2022-10-17T16:27:50;16.15;;;12.15;;
5416;SDS011;2731;50.754;12.990;2022-10-17T16:30:19;16.35;;;12.68;;
5416;SDS011;2731;50.754;12.990;2022-10-17T16:32:46;17.70;;;12.93;;
5416;SDS011;2731;50.754;12.990;2022-10-17T16:35:17;15.73;;;11.63;;
5416;SDS011;2731;50.754;12.990;2022-10-17T16:37:44;19.42;;;14.40;;
5416;SDS011;2731;50.754;12.990;2022-10-17T16:40:10;17.13;;;13.65;;
5416;SDS011;2731;50.754;12.990;2022-10-17T16:42:37;17.50;;;13.57;;
5416;SDS011;2731;50.754;12.990;2022-10-17T16:45:04;18.48;;;14.77;;
5416;SDS011;2731;50.754;12.990;2022-10-17T16:47:30;18.13;;;13.65;;
5416;SDS011;2731;50.754;12.990;2022-10-17T16:49:57;16.55;;;12.88;;
5416;SDS011;2731;50.754;12.990;2022-10-17T16:52:23;17.27;;;13.43;;
5416;SDS011;2731;50.754;12.990;2022-10-17T16:54:48;18.92;;;14.95;;
5416;SDS011;2731;50.754;12.990;2022-10-17T16:57:16;19.13;;;14.65;;
5416;SDS011;2731;50.754;12.990;2022-10-17T16:59:43;18.05;;;13.57;;
5416;SDS011;2731;50.754;12.990;2022-10-17T17:02:11;17.30;;;13.57;;
5416;SDS011;2731;50.754;12.990;2022-10-17T17:04:38;20.17;;;14.45;;
5416;SDS011;2731;50.754;12.990;2022-10-17T17:07:04;22.83;;;15.60;;
5416;SDS011;2731;50.754;12.990;2022-10-17T17:09:32;21.23;;;15.07;;
5416;SDS011;2731;50.754;12.990;2022-10-17T17:11:58;20.77;;;16.02;;
5416;SDS011;2731;50.754;12.990;2022-10-17T17:14:24;20.60;;;15.57;;
5416;SDS011;2731;50.754;12.990;2022-10-17T17:16:50;20.20;;;15.18;;
5416;SDS011;2731;50.754;12.990;2022-10-17T17:19:15;21.52;;;15.98;;
5416;SDS011;2731;50.754;12.990;2022-10-17T17:21:43;23.00;;;16.20;;
5416;SDS011;2731;50.754;12.990;2022-10-17T17:26:43;23.25;;;16.83;;
5416;SDS011;2731;50.754;12.990;2022-10-17T17:29:09;22.63;;;16.70;;
5416;SDS011;2731;50.754;12.990;2022-10-17T17:31:37;19.27;;;15.43;;
5416;SDS011;2731;50.754;12.990;2022-10-17T17:34:03;23.17;;;16.33;;
5416;SDS011;2731;50.754;12.990;2022-10-17T17:36:35;23.50;;;17.02;;
5416;SDS011;2731;50.754;12.990;2022-10-17T17:39:02;19.65;;;14.93;;
5416;SDS011;2731;50.754;12.990;2022-10-17T17:41:29;21.02;;;15.77;;
5416;SDS011;2731;50.754;12.990;2022-10-17T17:43:55;21.70;;;16.23;;
5416;SDS011;2731;50.754;12.990;2022-10-17T17:46:23;21.92;;;16.98;;
5416;SDS011;2731;50.754;12.990;2022-10-17T17:48:49;22.10;;;16.30;;
5416;SDS011;2731;50.754;12.990;2022-10-17T17:51:18;21.80;;;16.05;;
5416;SDS011;2731;50.754;12.990;2022-10-17T17:53:47;22.05;;;16.35;;
5416;SDS011;2731;50.754;12.990;2022-10-17T17:58:53;26.63;;;16.65;;